sensor_id;sensor_type;location;lat;lon;timestamp;P1;durP1;ratioP1;P2;durP2;ratioP2
53666;SDS011;39568;51.026;5.468;2022-12-18T00:01:58;158.07;;;52.88;;
53666;SDS011;39568;51.026;5.468;2022-12-18T00:04:25;171.90;;;56.28;;
53666;SDS011;39568;51.026;5.468;2022-12-18T00:06:54;173.35;;;56.92;;
53666;SDS011;39568;51.026;5.468;2022-12-18T00:09:21;158.68;;;53.70;;
53666;SDS011;39568;51.026;5.468;2022-12-18T00:11:48;148.15;;;53.17;;
53666;SDS011;39568;51.026;5.468;2022-12-18T00:14:14;151.60;;;50.65;;
53666;SDS011;39568;51.026;5.468;2022-12-18T00:16:42;152.35;;;53.05;;
53666;SDS011;39568;51.026;5.468;2022-12-18T00:19:10;143.27;;;49.03;;
53666;SDS011;39568;51.026;5.468;2022-12-18T00:21:37;120.25;;;44.60;;
53666;SDS011;39568;51.026;5.468;2022-12-18T00:24:06;130.80;;;46.90;;
53666;SDS011;39568;51.026;5.468;2022-12-18T00:26:33;119.35;;;45.40;;
53666;SDS011;39568;51.026;5.468;2022-12-18T00:29:02;130.13;;;47.85;;
53666;SDS011;39568;51.026;5.468;2022-12-18T00:31:30;121.85;;;45.03;;
53666;SDS011;39568;51.026;5.468;2022-12-18T00:33:57;119.90;;;41.55;;
53666;SDS011;39568;51.026;5.468;2022-12-18T00:36:26;127.13;;;43.97;;
53666;SDS011;39568;51.026;5.468;2022-12-18T00:38:54;110.20;;;43.28;;
53666;SDS011;39568;51.026;5.468;2022-12-18T00:41:24;108.72;;;38.75;;
53666;SDS011;39568;51.026;5.468;2022-12-18T00:44:09;103.82;;;35.75;;
53666;SDS011;39568;51.026;5.468;2022-12-18T00:46:37;116.82;;;38.47;;
53666;SDS011;39568;51.026;5.468;2022-12-18T00:49:04;103.38;;;38.90;;
53666;SDS011;39568;51.026;5.468;2022-12-18T00:51:31;126.97;;;40.28;;
53666;SDS011;39568;51.026;5.468;2022-12-18T00:53:58;115.60;;;41.40;;
53666;SDS011;39568;51.026;5.468;2022-12-18T00:56:26;114.03;;;41.30;;
53666;SDS011;39568;51.026;5.468;2022-12-18T00:58:53;132.38;;;42.55;;
53666;SDS011;39568;51.026;5.468;2022-12-18T01:01:19;108.20;;;40.20;;
53666;SDS011;39568;51.026;5.468;2022-12-18T01:03:46;104.90;;;39.40;;
53666;SDS011;39568;51.026;5.468;2022-12-18T01:06:13;108.65;;;39.75;;
53666;SDS011;39568;51.026;5.468;2022-12-18T01:08:41;103.75;;;37.05;;
53666;SDS011;39568;51.026;5.468;2022-12-18T01:11:08;116.70;;;42.42;;
53666;SDS011;39568;51.026;5.468;2022-12-18T01:13:38;113.35;;;38.90;;
53666;SDS011;39568;51.026;5.468;2022-12-18T01:16:05;118.65;;;41.67;;
53666;SDS011;39568;51.026;5.468;2022-12-18T01:18:32;115.85;;;40.28;;
53666;SDS011;39568;51.026;5.468;2022-12-18T01:20:59;113.63;;;39.55;;
53666;SDS011;39568;51.026;5.468;2022-12-18T01:23:25;121.85;;;39.63;;
53666;SDS011;39568;51.026;5.468;2022-12-18T01:25:52;93.03;;;39.80;;
53666;SDS011;39568;51.026;5.468;2022-12-18T01:28:19;103.57;;;40.55;;
53666;SDS011;39568;51.026;5.468;2022-12-18T01:30:47;119.97;;;38.85;;
53666;SDS011;39568;51.026;5.468;2022-12-18T01:33:13;112.10;;;35.83;;
53666;SDS011;39568;51.026;5.468;2022-12-18T01:35:40;93.50;;;36.97;;
53666;SDS011;39568;51.026;5.468;2022-12-18T01:38:07;88.78;;;35.83;;
53666;SDS011;39568;51.026;5.468;2022-12-18T01:40:34;99.50;;;41.60;;
53666;SDS011;39568;51.026;5.468;2022-12-18T01:43:01;92.63;;;35.22;;
53666;SDS011;39568;51.026;5.468;2022-12-18T01:45:28;100.75;;;36.65;;
53666;SDS011;39568;51.026;5.468;2022-12-18T01:47:58;113.22;;;37.78;;
53666;SDS011;39568;51.026;5.468;2022-12-18T01:50:28;105.75;;;36.47;;
53666;SDS011;39568;51.026;5.468;2022-12-18T01:52:58;108.57;;;40.30;;
53666;SDS011;39568;51.026;5.468;2022-12-18T01:55:26;98.93;;;38.47;;
53666;SDS011;39568;51.026;5.468;2022-12-18T01:57:56;102.70;;;36.15;;
53666;SDS011;39568;51.026;5.468;2022-12-18T02:00:25;107.30;;;35.63;;
53666;SDS011;39568;51.026;5.468;2022-12-18T02:02:53;114.95;;;37.63;;
53666;SDS011;39568;51.026;5.468;2022-12-18T02:05:23;114.88;;;37.55;;
53666;SDS011;39568;51.026;5.468;2022-12-18T02:08:01;96.22;;;35.33;;
53666;SDS011;39568;51.026;5.468;2022-12-18T02:10:35;110.10;;;36.40;;
53666;SDS011;39568;51.026;5.468;2022-12-18T02:13:12;103.50;;;35.20;;
53666;SDS011;39568;51.026;5.468;2022-12-18T02:15:42;90.65;;;34.47;;
53666;SDS011;39568;51.026;5.468;2022-12-18T02:18:16;96.68;;;34.20;;
53666;SDS011;39568;51.026;5.468;2022-12-18T02:20:47;104.22;;;34.92;;
53666;SDS011;39568;51.026;5.468;2022-12-18T02:23:23;97.03;;;34.13;;
53666;SDS011;39568;51.026;5.468;2022-12-18T02:26:06;83.47;;;32.63;;
53666;SDS011;39568;51.026;5.468;2022-12-18T02:28:40;99.68;;;37.13;;
53666;SDS011;39568;51.026;5.468;2022-12-18T02:31:10;102.68;;;35.95;;
53666;SDS011;39568;51.026;5.468;2022-12-18T02:33:47;112.32;;;35.95;;
53666;SDS011;39568;51.026;5.468;2022-12-18T02:36:16;92.05;;;35.65;;
53666;SDS011;39568;51.026;5.468;2022-12-18T02:38:46;109.88;;;39.65;;
53666;SDS011;39568;51.026;5.468;2022-12-18T02:41:15;105.63;;;38.25;;
53666;SDS011;39568;51.026;5.468;2022-12-18T02:43:46;97.85;;;37.40;;
53666;SDS011;39568;51.026;5.468;2022-12-18T02:48:58;98.25;;;36.28;;
53666;SDS011;39568;51.026;5.468;2022-12-18T02:51:32;98.47;;;35.03;;
53666;SDS011;39568;51.026;5.468;2022-12-18T02:54:09;100.40;;;35.08;;
53666;SDS011;39568;51.026;5.468;2022-12-18T02:56:43;86.88;;;32.22;;
53666;SDS011;39568;51.026;5.468;2022-12-18T02:59:15;81.10;;;32.65;;
53666;SDS011;39568;51.026;5.468;2022-12-18T03:01:49;94.72;;;33.83;;
53666;SDS011;39568;51.026;5.468;2022-12-18T03:04:23;80.97;;;33.38;;
53666;SDS011;39568;51.026;5.468;2022-12-18T03:06:54;88.43;;;34.40;;
53666;SDS011;39568;51.026;5.468;2022-12-18T03:09:24;85.50;;;32.67;;
53666;SDS011;39568;51.026;5.468;2022-12-18T03:12:00;79.75;;;34.70;;
53666;SDS011;39568;51.026;5.468;2022-12-18T03:14:49;83.80;;;34.28;;
53666;SDS011;39568;51.026;5.468;2022-12-18T03:17:21;91.20;;;35.08;;
53666;SDS011;39568;51.026;5.468;2022-12-18T03:19:51;84.95;;;29.85;;
53666;SDS011;39568;51.026;5.468;2022-12-18T03:22:20;93.20;;;34.80;;
53666;SDS011;39568;51.026;5.468;2022-12-18T03:24:49;97.63;;;35.67;;
53666;SDS011;39568;51.026;5.468;2022-12-18T03:27:19;85.45;;;35.25;;
53666;SDS011;39568;51.026;5.468;2022-12-18T03:29:48;81.95;;;32.95;;
53666;SDS011;39568;51.026;5.468;2022-12-18T03:32:21;86.60;;;34.15;;
53666;SDS011;39568;51.026;5.468;2022-12-18T03:34:52;76.82;;;31.30;;
53666;SDS011;39568;51.026;5.468;2022-12-18T03:37:24;89.00;;;33.63;;
53666;SDS011;39568;51.026;5.468;2022-12-18T03:39:51;75.13;;;33.05;;
53666;SDS011;39568;51.026;5.468;2022-12-18T03:42:20;65.57;;;31.65;;
53666;SDS011;39568;51.026;5.468;2022-12-18T03:44:54;78.80;;;33.40;;
53666;SDS011;39568;51.026;5.468;2022-12-18T03:47:25;81.90;;;31.75;;
53666;SDS011;39568;51.026;5.468;2022-12-18T03:49:55;81.60;;;33.78;;
53666;SDS011;39568;51.026;5.468;2022-12-18T03:52:26;81.72;;;32.05;;
53666;SDS011;39568;51.026;5.468;2022-12-18T03:54:54;81.18;;;30.40;;
53666;SDS011;39568;51.026;5.468;2022-12-18T03:57:25;76.75;;;30.25;;
53666;SDS011;39568;51.026;5.468;2022-12-18T03:59:55;72.90;;;30.10;;
53666;SDS011;39568;51.026;5.468;2022-12-18T04:02:24;74.28;;;28.02;;
53666;SDS011;39568;51.026;5.468;2022-12-18T04:04:51;75.13;;;30.23;;
53666;SDS011;39568;51.026;5.468;2022-12-18T04:07:21;70.93;;;27.10;;
53666;SDS011;39568;51.026;5.468;2022-12-18T04:09:49;65.00;;;28.15;;
53666;SDS011;39568;51.026;5.468;2022-12-18T04:12:19;64.45;;;29.35;;
53666;SDS011;39568;51.026;5.468;2022-12-18T04:14:47;77.47;;;30.52;;
53666;SDS011;39568;51.026;5.468;2022-12-18T04:17:14;65.22;;;27.60;;
53666;SDS011;39568;51.026;5.468;2022-12-18T04:19:41;70.75;;;29.80;;
53666;SDS011;39568;51.026;5.468;2022-12-18T04:22:08;66.32;;;26.52;;
53666;SDS011;39568;51.026;5.468;2022-12-18T04:24:37;67.57;;;27.45;;
53666;SDS011;39568;51.026;5.468;2022-12-18T04:27:04;63.70;;;26.25;;
53666;SDS011;39568;51.026;5.468;2022-12-18T04:29:32;64.38;;;27.17;;
53666;SDS011;39568;51.026;5.468;2022-12-18T04:32:00;59.03;;;25.23;;
53666;SDS011;39568;51.026;5.468;2022-12-18T04:34:27;59.85;;;25.48;;
53666;SDS011;39568;51.026;5.468;2022-12-18T04:36:53;47.15;;;22.13;;
53666;SDS011;39568;51.026;5.468;2022-12-18T04:39:20;48.92;;;23.27;;
53666;SDS011;39568;51.026;5.468;2022-12-18T04:41:47;62.00;;;24.00;;
53666;SDS011;39568;51.026;5.468;2022-12-18T04:44:14;66.13;;;24.83;;
53666;SDS011;39568;51.026;5.468;2022-12-18T04:46:40;58.53;;;24.17;;
53666;SDS011;39568;51.026;5.468;2022-12-18T04:49:09;54.67;;;25.40;;
53666;SDS011;39568;51.026;5.468;2022-12-18T04:51:35;46.83;;;22.85;;
53666;SDS011;39568;51.026;5.468;2022-12-18T04:54:03;58.95;;;23.80;;
53666;SDS011;39568;51.026;5.468;2022-12-18T04:56:30;60.97;;;22.75;;
53666;SDS011;39568;51.026;5.468;2022-12-18T04:58:57;54.85;;;22.92;;
53666;SDS011;39568;51.026;5.468;2022-12-18T05:01:24;55.42;;;24.25;;
53666;SDS011;39568;51.026;5.468;2022-12-18T05:03:51;59.33;;;23.75;;
53666;SDS011;39568;51.026;5.468;2022-12-18T05:06:19;60.53;;;23.25;;
53666;SDS011;39568;51.026;5.468;2022-12-18T05:08:46;44.80;;;20.90;;
53666;SDS011;39568;51.026;5.468;2022-12-18T05:11:14;48.80;;;23.17;;
53666;SDS011;39568;51.026;5.468;2022-12-18T05:13:42;50.38;;;22.98;;
53666;SDS011;39568;51.026;5.468;2022-12-18T05:16:09;47.10;;;19.88;;
53666;SDS011;39568;51.026;5.468;2022-12-18T05:18:36;45.78;;;21.73;;
53666;SDS011;39568;51.026;5.468;2022-12-18T05:21:03;53.25;;;21.10;;
53666;SDS011;39568;51.026;5.468;2022-12-18T05:23:31;43.17;;;20.52;;
53666;SDS011;39568;51.026;5.468;2022-12-18T05:25:59;53.13;;;20.23;;
53666;SDS011;39568;51.026;5.468;2022-12-18T05:28:28;42.88;;;19.30;;
53666;SDS011;39568;51.026;5.468;2022-12-18T05:30:57;46.13;;;19.88;;
53666;SDS011;39568;51.026;5.468;2022-12-18T05:33:26;45.95;;;21.67;;
53666;SDS011;39568;51.026;5.468;2022-12-18T05:35:55;46.92;;;19.73;;
53666;SDS011;39568;51.026;5.468;2022-12-18T05:38:24;45.58;;;19.33;;
53666;SDS011;39568;51.026;5.468;2022-12-18T05:40:54;48.53;;;18.98;;
53666;SDS011;39568;51.026;5.468;2022-12-18T05:43:22;45.28;;;20.65;;
53666;SDS011;39568;51.026;5.468;2022-12-18T05:45:49;41.45;;;19.25;;
53666;SDS011;39568;51.026;5.468;2022-12-18T05:48:17;46.45;;;19.65;;
53666;SDS011;39568;51.026;5.468;2022-12-18T05:50:44;39.67;;;18.35;;
53666;SDS011;39568;51.026;5.468;2022-12-18T05:53:12;52.38;;;20.67;;
53666;SDS011;39568;51.026;5.468;2022-12-18T05:55:41;47.15;;;18.98;;
53666;SDS011;39568;51.026;5.468;2022-12-18T05:58:10;46.10;;;19.90;;
53666;SDS011;39568;51.026;5.468;2022-12-18T06:00:39;46.70;;;20.27;;
53666;SDS011;39568;51.026;5.468;2022-12-18T06:03:07;45.38;;;21.67;;
53666;SDS011;39568;51.026;5.468;2022-12-18T06:05:35;56.65;;;19.27;;
53666;SDS011;39568;51.026;5.468;2022-12-18T06:08:03;42.40;;;20.50;;
53666;SDS011;39568;51.026;5.468;2022-12-18T06:10:30;47.42;;;18.58;;
53666;SDS011;39568;51.026;5.468;2022-12-18T06:12:57;54.60;;;18.85;;
53666;SDS011;39568;51.026;5.468;2022-12-18T06:15:25;45.03;;;18.58;;
53666;SDS011;39568;51.026;5.468;2022-12-18T06:17:52;45.85;;;22.02;;
53666;SDS011;39568;51.026;5.468;2022-12-18T06:20:18;43.58;;;17.25;;
53666;SDS011;39568;51.026;5.468;2022-12-18T06:22:45;42.78;;;18.65;;
53666;SDS011;39568;51.026;5.468;2022-12-18T06:25:12;50.35;;;19.25;;
53666;SDS011;39568;51.026;5.468;2022-12-18T06:27:38;46.90;;;18.75;;
53666;SDS011;39568;51.026;5.468;2022-12-18T06:30:06;41.88;;;19.15;;
53666;SDS011;39568;51.026;5.468;2022-12-18T06:32:35;45.83;;;20.05;;
53666;SDS011;39568;51.026;5.468;2022-12-18T06:35:01;46.80;;;19.38;;
53666;SDS011;39568;51.026;5.468;2022-12-18T06:37:28;42.50;;;20.15;;
53666;SDS011;39568;51.026;5.468;2022-12-18T06:39:56;43.45;;;19.33;;
53666;SDS011;39568;51.026;5.468;2022-12-18T06:42:23;51.50;;;20.92;;
53666;SDS011;39568;51.026;5.468;2022-12-18T06:44:50;50.00;;;19.40;;
53666;SDS011;39568;51.026;5.468;2022-12-18T06:47:17;47.67;;;20.55;;
53666;SDS011;39568;51.026;5.468;2022-12-18T06:49:45;48.65;;;18.15;;
53666;SDS011;39568;51.026;5.468;2022-12-18T06:52:12;39.40;;;20.27;;
53666;SDS011;39568;51.026;5.468;2022-12-18T06:54:39;41.78;;;18.25;;
53666;SDS011;39568;51.026;5.468;2022-12-18T06:57:06;40.33;;;19.95;;
53666;SDS011;39568;51.026;5.468;2022-12-18T06:59:32;48.63;;;22.05;;
53666;SDS011;39568;51.026;5.468;2022-12-18T07:01:59;52.65;;;21.30;;
53666;SDS011;39568;51.026;5.468;2022-12-18T07:04:27;51.92;;;21.85;;
53666;SDS011;39568;51.026;5.468;2022-12-18T07:06:56;46.95;;;19.38;;
53666;SDS011;39568;51.026;5.468;2022-12-18T07:09:22;44.97;;;18.48;;
53666;SDS011;39568;51.026;5.468;2022-12-18T07:11:49;49.72;;;21.27;;
53666;SDS011;39568;51.026;5.468;2022-12-18T07:14:16;47.85;;;21.17;;
53666;SDS011;39568;51.026;5.468;2022-12-18T07:16:42;48.08;;;21.55;;
53666;SDS011;39568;51.026;5.468;2022-12-18T07:19:09;45.50;;;19.02;;
53666;SDS011;39568;51.026;5.468;2022-12-18T07:21:36;56.92;;;21.13;;
53666;SDS011;39568;51.026;5.468;2022-12-18T07:24:04;51.42;;;21.80;;
53666;SDS011;39568;51.026;5.468;2022-12-18T07:26:32;43.75;;;18.52;;
53666;SDS011;39568;51.026;5.468;2022-12-18T07:28:58;50.33;;;21.55;;
53666;SDS011;39568;51.026;5.468;2022-12-18T07:31:25;51.58;;;20.02;;
53666;SDS011;39568;51.026;5.468;2022-12-18T07:33:52;54.42;;;21.58;;
53666;SDS011;39568;51.026;5.468;2022-12-18T07:36:19;50.40;;;21.50;;
53666;SDS011;39568;51.026;5.468;2022-12-18T07:38:46;65.68;;;24.38;;
53666;SDS011;39568;51.026;5.468;2022-12-18T07:41:15;51.17;;;22.33;;
53666;SDS011;39568;51.026;5.468;2022-12-18T07:43:43;65.90;;;25.50;;
53666;SDS011;39568;51.026;5.468;2022-12-18T07:46:10;65.70;;;27.38;;
53666;SDS011;39568;51.026;5.468;2022-12-18T07:48:39;71.40;;;27.08;;
53666;SDS011;39568;51.026;5.468;2022-12-18T07:51:06;69.43;;;26.45;;
53666;SDS011;39568;51.026;5.468;2022-12-18T07:53:34;60.53;;;27.38;;
53666;SDS011;39568;51.026;5.468;2022-12-18T07:56:02;70.00;;;26.40;;
53666;SDS011;39568;51.026;5.468;2022-12-18T07:58:32;54.88;;;25.40;;
53666;SDS011;39568;51.026;5.468;2022-12-18T08:01:02;55.95;;;24.60;;
53666;SDS011;39568;51.026;5.468;2022-12-18T08:03:30;50.90;;;23.55;;
53666;SDS011;39568;51.026;5.468;2022-12-18T08:05:58;59.53;;;25.02;;
53666;SDS011;39568;51.026;5.468;2022-12-18T08:08:25;53.17;;;24.95;;
53666;SDS011;39568;51.026;5.468;2022-12-18T08:10:52;43.75;;;19.50;;
53666;SDS011;39568;51.026;5.468;2022-12-18T08:13:18;44.08;;;21.38;;
53666;SDS011;39568;51.026;5.468;2022-12-18T08:15:48;47.50;;;20.67;;
53666;SDS011;39568;51.026;5.468;2022-12-18T08:18:21;42.60;;;19.83;;
53666;SDS011;39568;51.026;5.468;2022-12-18T08:20:48;35.83;;;18.70;;
53666;SDS011;39568;51.026;5.468;2022-12-18T08:23:15;44.17;;;18.70;;
53666;SDS011;39568;51.026;5.468;2022-12-18T08:25:42;39.42;;;21.35;;
53666;SDS011;39568;51.026;5.468;2022-12-18T08:28:09;40.55;;;20.63;;
53666;SDS011;39568;51.026;5.468;2022-12-18T08:30:35;46.95;;;21.23;;
53666;SDS011;39568;51.026;5.468;2022-12-18T08:33:03;42.97;;;20.02;;
53666;SDS011;39568;51.026;5.468;2022-12-18T08:35:34;34.92;;;19.17;;
53666;SDS011;39568;51.026;5.468;2022-12-18T08:38:01;38.28;;;20.30;;
53666;SDS011;39568;51.026;5.468;2022-12-18T08:40:27;40.35;;;19.73;;
53666;SDS011;39568;51.026;5.468;2022-12-18T08:42:54;35.95;;;18.50;;
53666;SDS011;39568;51.026;5.468;2022-12-18T08:45:38;37.08;;;18.55;;
53666;SDS011;39568;51.026;5.468;2022-12-18T08:48:06;38.30;;;18.77;;
53666;SDS011;39568;51.026;5.468;2022-12-18T08:50:33;40.78;;;19.88;;
53666;SDS011;39568;51.026;5.468;2022-12-18T08:53:00;41.15;;;19.60;;
53666;SDS011;39568;51.026;5.468;2022-12-18T08:55:27;37.75;;;17.80;;
53666;SDS011;39568;51.026;5.468;2022-12-18T08:57:53;39.20;;;15.93;;
53666;SDS011;39568;51.026;5.468;2022-12-18T09:00:20;39.13;;;17.88;;
53666;SDS011;39568;51.026;5.468;2022-12-18T09:02:47;26.60;;;14.98;;
53666;SDS011;39568;51.026;5.468;2022-12-18T09:05:15;37.38;;;16.05;;
53666;SDS011;39568;51.026;5.468;2022-12-18T09:07:42;26.15;;;14.15;;
53666;SDS011;39568;51.026;5.468;2022-12-18T09:10:08;30.48;;;14.98;;
53666;SDS011;39568;51.026;5.468;2022-12-18T09:12:35;31.00;;;14.23;;
53666;SDS011;39568;51.026;5.468;2022-12-18T09:15:02;30.52;;;15.38;;
53666;SDS011;39568;51.026;5.468;2022-12-18T09:17:29;28.65;;;12.60;;
53666;SDS011;39568;51.026;5.468;2022-12-18T09:19:55;27.40;;;12.85;;
53666;SDS011;39568;51.026;5.468;2022-12-18T09:22:24;25.92;;;13.48;;
53666;SDS011;39568;51.026;5.468;2022-12-18T09:24:50;28.70;;;12.95;;
53666;SDS011;39568;51.026;5.468;2022-12-18T09:27:17;25.83;;;14.85;;
53666;SDS011;39568;51.026;5.468;2022-12-18T09:29:43;26.27;;;13.48;;
53666;SDS011;39568;51.026;5.468;2022-12-18T09:32:10;32.22;;;14.93;;
53666;SDS011;39568;51.026;5.468;2022-12-18T09:34:37;25.10;;;14.13;;
53666;SDS011;39568;51.026;5.468;2022-12-18T09:37:03;25.13;;;13.68;;
53666;SDS011;39568;51.026;5.468;2022-12-18T09:39:31;22.55;;;12.27;;
53666;SDS011;39568;51.026;5.468;2022-12-18T09:41:58;23.67;;;13.40;;
53666;SDS011;39568;51.026;5.468;2022-12-18T09:44:26;22.48;;;12.45;;
53666;SDS011;39568;51.026;5.468;2022-12-18T09:47:00;31.23;;;13.85;;
53666;SDS011;39568;51.026;5.468;2022-12-18T09:49:34;28.95;;;12.95;;
53666;SDS011;39568;51.026;5.468;2022-12-18T09:52:05;31.25;;;13.70;;
53666;SDS011;39568;51.026;5.468;2022-12-18T09:54:39;25.33;;;12.95;;
53666;SDS011;39568;51.026;5.468;2022-12-18T09:57:10;25.40;;;13.82;;
53666;SDS011;39568;51.026;5.468;2022-12-18T09:59:39;28.70;;;15.40;;
53666;SDS011;39568;51.026;5.468;2022-12-18T10:02:15;32.92;;;14.13;;
53666;SDS011;39568;51.026;5.468;2022-12-18T10:04:43;30.42;;;15.18;;
53666;SDS011;39568;51.026;5.468;2022-12-18T10:09:49;24.10;;;13.30;;
53666;SDS011;39568;51.026;5.468;2022-12-18T10:12:24;33.65;;;15.32;;
53666;SDS011;39568;51.026;5.468;2022-12-18T10:14:57;29.90;;;14.48;;
53666;SDS011;39568;51.026;5.468;2022-12-18T10:17:33;32.70;;;15.85;;
53666;SDS011;39568;51.026;5.468;2022-12-18T10:20:09;32.58;;;16.48;;
53666;SDS011;39568;51.026;5.468;2022-12-18T10:22:42;25.33;;;14.23;;
53666;SDS011;39568;51.026;5.468;2022-12-18T10:25:20;24.40;;;13.38;;
53666;SDS011;39568;51.026;5.468;2022-12-18T10:27:51;29.95;;;14.02;;
53666;SDS011;39568;51.026;5.468;2022-12-18T10:30:22;35.38;;;16.92;;
53666;SDS011;39568;51.026;5.468;2022-12-18T10:32:50;42.55;;;18.25;;
53666;SDS011;39568;51.026;5.468;2022-12-18T10:35:18;34.58;;;15.93;;
53666;SDS011;39568;51.026;5.468;2022-12-18T10:38:00;35.92;;;17.00;;
53666;SDS011;39568;51.026;5.468;2022-12-18T10:40:30;32.92;;;16.48;;
53666;SDS011;39568;51.026;5.468;2022-12-18T10:43:03;29.77;;;15.52;;
53666;SDS011;39568;51.026;5.468;2022-12-18T10:45:32;27.05;;;15.52;;
53666;SDS011;39568;51.026;5.468;2022-12-18T10:48:00;29.52;;;16.00;;
53666;SDS011;39568;51.026;5.468;2022-12-18T10:50:28;35.13;;;17.05;;
53666;SDS011;39568;51.026;5.468;2022-12-18T10:52:58;29.42;;;16.23;;
53666;SDS011;39568;51.026;5.468;2022-12-18T10:55:27;43.08;;;16.30;;
53666;SDS011;39568;51.026;5.468;2022-12-18T10:58:12;35.92;;;17.85;;
53666;SDS011;39568;51.026;5.468;2022-12-18T11:00:42;39.00;;;18.75;;
53666;SDS011;39568;51.026;5.468;2022-12-18T11:03:17;41.10;;;18.23;;
53666;SDS011;39568;51.026;5.468;2022-12-18T11:06:03;37.10;;;18.73;;
53666;SDS011;39568;51.026;5.468;2022-12-18T11:08:31;35.47;;;18.45;;
53666;SDS011;39568;51.026;5.468;2022-12-18T11:11:00;31.60;;;17.33;;
53666;SDS011;39568;51.026;5.468;2022-12-18T11:13:27;28.88;;;17.10;;
53666;SDS011;39568;51.026;5.468;2022-12-18T11:15:56;36.65;;;18.08;;
53666;SDS011;39568;51.026;5.468;2022-12-18T11:18:24;33.38;;;17.85;;
53666;SDS011;39568;51.026;5.468;2022-12-18T11:20:53;40.90;;;18.02;;
53666;SDS011;39568;51.026;5.468;2022-12-18T11:23:22;37.97;;;18.90;;
53666;SDS011;39568;51.026;5.468;2022-12-18T11:25:53;34.13;;;16.15;;
53666;SDS011;39568;51.026;5.468;2022-12-18T11:28:28;35.92;;;17.08;;
53666;SDS011;39568;51.026;5.468;2022-12-18T11:31:09;36.38;;;18.10;;
53666;SDS011;39568;51.026;5.468;2022-12-18T11:33:44;34.17;;;16.70;;
53666;SDS011;39568;51.026;5.468;2022-12-18T11:36:14;39.85;;;18.50;;
53666;SDS011;39568;51.026;5.468;2022-12-18T11:38:42;36.58;;;18.92;;
53666;SDS011;39568;51.026;5.468;2022-12-18T11:41:13;33.97;;;17.30;;
53666;SDS011;39568;51.026;5.468;2022-12-18T11:43:49;35.85;;;17.45;;
53666;SDS011;39568;51.026;5.468;2022-12-18T11:46:23;33.88;;;17.55;;
53666;SDS011;39568;51.026;5.468;2022-12-18T11:48:54;34.78;;;15.75;;
53666;SDS011;39568;51.026;5.468;2022-12-18T11:51:28;33.13;;;15.63;;
53666;SDS011;39568;51.026;5.468;2022-12-18T11:54:00;36.15;;;18.17;;
53666;SDS011;39568;51.026;5.468;2022-12-18T11:56:29;34.08;;;16.75;;
53666;SDS011;39568;51.026;5.468;2022-12-18T11:59:03;31.27;;;16.80;;
53666;SDS011;39568;51.026;5.468;2022-12-18T12:01:38;34.30;;;18.25;;
53666;SDS011;39568;51.026;5.468;2022-12-18T12:04:22;37.80;;;16.55;;
53666;SDS011;39568;51.026;5.468;2022-12-18T12:07:00;35.33;;;17.25;;
53666;SDS011;39568;51.026;5.468;2022-12-18T12:09:37;33.72;;;17.08;;
53666;SDS011;39568;51.026;5.468;2022-12-18T12:12:23;36.45;;;18.70;;
53666;SDS011;39568;51.026;5.468;2022-12-18T12:15:13;35.78;;;17.38;;
53666;SDS011;39568;51.026;5.468;2022-12-18T12:17:49;32.97;;;18.00;;
53666;SDS011;39568;51.026;5.468;2022-12-18T12:20:20;33.70;;;18.90;;
53666;SDS011;39568;51.026;5.468;2022-12-18T12:22:53;37.13;;;19.88;;
53666;SDS011;39568;51.026;5.468;2022-12-18T12:25:28;34.67;;;18.20;;
53666;SDS011;39568;51.026;5.468;2022-12-18T12:28:06;33.88;;;18.25;;
53666;SDS011;39568;51.026;5.468;2022-12-18T12:30:45;42.55;;;18.33;;
53666;SDS011;39568;51.026;5.468;2022-12-18T12:33:24;35.22;;;17.75;;
53666;SDS011;39568;51.026;5.468;2022-12-18T12:36:01;29.77;;;15.55;;
53666;SDS011;39568;51.026;5.468;2022-12-18T12:38:37;35.25;;;17.45;;
53666;SDS011;39568;51.026;5.468;2022-12-18T12:41:09;36.17;;;16.50;;
53666;SDS011;39568;51.026;5.468;2022-12-18T12:43:53;36.30;;;17.25;;
53666;SDS011;39568;51.026;5.468;2022-12-18T12:46:25;41.08;;;17.63;;
53666;SDS011;39568;51.026;5.468;2022-12-18T12:48:52;41.03;;;18.75;;
53666;SDS011;39568;51.026;5.468;2022-12-18T12:51:22;39.22;;;19.30;;
53666;SDS011;39568;51.026;5.468;2022-12-18T12:53:52;36.38;;;18.60;;
53666;SDS011;39568;51.026;5.468;2022-12-18T12:56:21;38.33;;;17.00;;
53666;SDS011;39568;51.026;5.468;2022-12-18T12:59:04;34.85;;;18.80;;
53666;SDS011;39568;51.026;5.468;2022-12-18T13:01:41;37.05;;;17.52;;
53666;SDS011;39568;51.026;5.468;2022-12-18T13:04:20;43.75;;;19.45;;
53666;SDS011;39568;51.026;5.468;2022-12-18T13:06:54;43.33;;;20.02;;
53666;SDS011;39568;51.026;5.468;2022-12-18T13:09:29;41.05;;;20.30;;
53666;SDS011;39568;51.026;5.468;2022-12-18T13:12:00;44.53;;;20.25;;
53666;SDS011;39568;51.026;5.468;2022-12-18T13:14:46;35.33;;;17.55;;
53666;SDS011;39568;51.026;5.468;2022-12-18T13:17:28;35.35;;;18.60;;
53666;SDS011;39568;51.026;5.468;2022-12-18T13:20:09;39.47;;;19.45;;
53666;SDS011;39568;51.026;5.468;2022-12-18T13:22:37;34.80;;;20.13;;
53666;SDS011;39568;51.026;5.468;2022-12-18T13:28:11;32.85;;;17.27;;
53666;SDS011;39568;51.026;5.468;2022-12-18T13:30:42;34.25;;;17.52;;
53666;SDS011;39568;51.026;5.468;2022-12-18T13:36:16;39.00;;;18.15;;
53666;SDS011;39568;51.026;5.468;2022-12-18T13:39:21;28.05;;;17.23;;
53666;SDS011;39568;51.026;5.468;2022-12-18T13:41:51;36.55;;;18.02;;
53666;SDS011;39568;51.026;5.468;2022-12-18T13:44:31;45.63;;;19.73;;
53666;SDS011;39568;51.026;5.468;2022-12-18T13:47:00;35.22;;;18.92;;
53666;SDS011;39568;51.026;5.468;2022-12-18T13:49:30;35.47;;;18.70;;
53666;SDS011;39568;51.026;5.468;2022-12-18T13:52:10;34.42;;;17.20;;
53666;SDS011;39568;51.026;5.468;2022-12-18T13:54:42;40.90;;;20.65;;
53666;SDS011;39568;51.026;5.468;2022-12-18T13:57:25;49.72;;;20.27;;
53666;SDS011;39568;51.026;5.468;2022-12-18T13:59:53;39.35;;;19.50;;
53666;SDS011;39568;51.026;5.468;2022-12-18T14:02:21;46.05;;;20.85;;
53666;SDS011;39568;51.026;5.468;2022-12-18T14:04:49;42.75;;;20.90;;
53666;SDS011;39568;51.026;5.468;2022-12-18T14:07:19;42.47;;;21.02;;
53666;SDS011;39568;51.026;5.468;2022-12-18T14:09:48;43.70;;;21.77;;
53666;SDS011;39568;51.026;5.468;2022-12-18T14:12:18;48.58;;;22.13;;
53666;SDS011;39568;51.026;5.468;2022-12-18T14:15:05;37.67;;;21.08;;
53666;SDS011;39568;51.026;5.468;2022-12-18T14:17:35;45.38;;;21.33;;
53666;SDS011;39568;51.026;5.468;2022-12-18T14:20:02;45.47;;;20.85;;
53666;SDS011;39568;51.026;5.468;2022-12-18T14:22:31;43.50;;;21.25;;
53666;SDS011;39568;51.026;5.468;2022-12-18T14:25:05;43.17;;;19.90;;
53666;SDS011;39568;51.026;5.468;2022-12-18T14:27:42;48.40;;;21.83;;
53666;SDS011;39568;51.026;5.468;2022-12-18T14:30:22;51.95;;;22.48;;
53666;SDS011;39568;51.026;5.468;2022-12-18T14:32:59;40.42;;;20.92;;
53666;SDS011;39568;51.026;5.468;2022-12-18T14:35:26;41.33;;;22.95;;
53666;SDS011;39568;51.026;5.468;2022-12-18T14:37:55;49.35;;;23.08;;
53666;SDS011;39568;51.026;5.468;2022-12-18T14:40:37;49.70;;;23.25;;
53666;SDS011;39568;51.026;5.468;2022-12-18T14:43:04;52.67;;;23.52;;
53666;SDS011;39568;51.026;5.468;2022-12-18T14:45:34;47.38;;;23.17;;
53666;SDS011;39568;51.026;5.468;2022-12-18T14:48:05;47.30;;;22.13;;